sensor_id;sensor_type;location;lat;lon;timestamp;temperature;humidity
57030;DHT22;42920;45.306;20.448;2023-04-16T00:02:17;307.40;2304.00
57030;DHT22;42920;45.306;20.448;2023-04-16T00:04:43;307.30;2304.00
57030;DHT22;42920;45.306;20.448;2023-04-16T00:07:08;307.30;2304.00
57030;DHT22;42920;45.306;20.448;2023-04-16T00:09:34;307.30;2304.00
57030;DHT22;42920;45.306;20.448;2023-04-16T00:12:02;307.20;2304.00
57030;DHT22;42920;45.306;20.448;2023-04-16T00:14:29;282.50;2278.40
57030;DHT22;42920;45.306;20.448;2023-04-16T00:16:54;307.30;2304.00
57030;DHT22;42920;45.306;20.448;2023-04-16T00:19:20;307.20;2304.00
57030;DHT22;42920;45.306;20.448;2023-04-16T00:21:46;282.50;2278.40
57030;DHT22;42920;45.306;20.448;2023-04-16T00:24:12;282.40;2278.40
57030;DHT22;42920;45.306;20.448;2023-04-16T00:26:37;282.30;2278.40
57030;DHT22;42920;45.306;20.448;2023-04-16T00:29:03;282.10;2278.40
57030;DHT22;42920;45.306;20.448;2023-04-16T00:31:30;282.10;2278.40
57030;DHT22;42920;45.306;20.448;2023-04-16T00:33:56;282.10;2278.40
57030;DHT22;42920;45.306;20.448;2023-04-16T00:36:23;282.10;2278.40
57030;DHT22;42920;45.306;20.448;2023-04-16T00:38:49;282.10;2278.40
57030;DHT22;42920;45.306;20.448;2023-04-16T00:41:15;282.10;2278.40
57030;DHT22;42920;45.306;20.448;2023-04-16T00:43:41;282.00;2278.40
57030;DHT22;42920;45.306;20.448;2023-04-16T00:46:07;281.90;2278.40
57030;DHT22;42920;45.306;20.448;2023-04-16T00:48:34;281.90;2278.40
57030;DHT22;42920;45.306;20.448;2023-04-16T00:51:03;281.70;2278.40
57030;DHT22;42920;45.306;20.448;2023-04-16T00:53:29;281.70;2278.40
57030;DHT22;42920;45.306;20.448;2023-04-16T00:55:56;281.70;2278.40
57030;DHT22;42920;45.306;20.448;2023-04-16T00:58:22;281.60;2278.40
57030;DHT22;42920;45.306;20.448;2023-04-16T01:00:49;256.90;2252.80
57030;DHT22;42920;45.306;20.448;2023-04-16T01:03:14;256.90;2252.80
57030;DHT22;42920;45.306;20.448;2023-04-16T01:05:40;256.90;2252.80
57030;DHT22;42920;45.306;20.448;2023-04-16T01:08:06;281.60;2278.40
57030;DHT22;42920;45.306;20.448;2023-04-16T01:10:32;256.80;2252.80
57030;DHT22;42920;45.306;20.448;2023-04-16T01:12:57;256.90;2252.80
57030;DHT22;42920;45.306;20.448;2023-04-16T01:15:23;256.80;2252.80
57030;DHT22;42920;45.306;20.448;2023-04-16T01:17:48;256.70;2252.80
57030;DHT22;42920;45.306;20.448;2023-04-16T01:20:14;256.80;2252.80
57030;DHT22;42920;45.306;20.448;2023-04-16T01:22:39;256.70;2252.80
57030;DHT22;42920;45.306;20.448;2023-04-16T01:25:05;256.70;2252.80
57030;DHT22;42920;45.306;20.448;2023-04-16T01:27:30;256.70;2252.80
57030;DHT22;42920;45.306;20.448;2023-04-16T01:29:56;256.70;2252.80
57030;DHT22;42920;45.306;20.448;2023-04-16T01:32:22;256.50;2252.80
57030;DHT22;42920;45.306;20.448;2023-04-16T01:34:48;256.50;2252.80
57030;DHT22;42920;45.306;20.448;2023-04-16T01:37:14;256.50;2252.80
57030;DHT22;42920;45.306;20.448;2023-04-16T01:39:40;256.40;2252.80
57030;DHT22;42920;45.306;20.448;2023-04-16T01:42:05;256.50;2252.80
57030;DHT22;42920;45.306;20.448;2023-04-16T01:44:31;256.40;2252.80
57030;DHT22;42920;45.306;20.448;2023-04-16T01:46:56;256.40;2252.80
57030;DHT22;42920;45.306;20.448;2023-04-16T01:49:22;256.40;2252.80
57030;DHT22;42920;45.306;20.448;2023-04-16T01:51:47;256.60;2252.80
57030;DHT22;42920;45.306;20.448;2023-04-16T01:54:13;256.60;2252.80
57030;DHT22;42920;45.306;20.448;2023-04-16T01:56:38;256.60;2252.80
57030;DHT22;42920;45.306;20.448;2023-04-16T01:59:04;256.80;2252.80
57030;DHT22;42920;45.306;20.448;2023-04-16T02:01:30;256.80;2252.80
57030;DHT22;42920;45.306;20.448;2023-04-16T02:03:55;256.80;2252.80
57030;DHT22;42920;45.306;20.448;2023-04-16T02:06:21;256.90;2252.80
57030;DHT22;42920;45.306;20.448;2023-04-16T02:08:47;256.90;2252.80
57030;DHT22;42920;45.306;20.448;2023-04-16T02:11:12;256.80;2252.80
57030;DHT22;42920;45.306;20.448;2023-04-16T02:13:38;256.80;2252.80
57030;DHT22;42920;45.306;20.448;2023-04-16T02:16:03;256.40;2252.80
57030;DHT22;42920;45.306;20.448;2023-04-16T02:18:29;256.20;2252.80
57030;DHT22;42920;45.306;20.448;2023-04-16T02:20:56;231.30;2252.80
57030;DHT22;42920;45.306;20.448;2023-04-16T02:23:22;256.10;2252.80
57030;DHT22;42920;45.306;20.448;2023-04-16T02:25:48;256.20;2252.80
57030;DHT22;42920;45.306;20.448;2023-04-16T02:28:14;256.10;2252.80
57030;DHT22;42920;45.306;20.448;2023-04-16T02:30:40;231.20;2252.80
57030;DHT22;42920;45.306;20.448;2023-04-16T02:33:07;231.10;2252.80
57030;DHT22;42920;45.306;20.448;2023-04-16T02:35:33;231.00;2252.80
57030;DHT22;42920;45.306;20.448;2023-04-16T02:37:59;230.90;2252.80
57030;DHT22;42920;45.306;20.448;2023-04-16T02:40:25;230.80;2252.80
57030;DHT22;42920;45.306;20.448;2023-04-16T02:42:51;230.70;2252.80
57030;DHT22;42920;45.306;20.448;2023-04-16T02:45:17;230.70;2252.80
57030;DHT22;42920;45.306;20.448;2023-04-16T02:47:43;230.70;2252.80
57030;DHT22;42920;45.306;20.448;2023-04-16T02:50:08;230.90;2252.80
57030;DHT22;42920;45.306;20.448;2023-04-16T02:52:34;231.00;2252.80
57030;DHT22;42920;45.306;20.448;2023-04-16T02:55:00;231.00;2252.80
57030;DHT22;42920;45.306;20.448;2023-04-16T02:57:26;231.10;2252.80
57030;DHT22;42920;45.306;20.448;2023-04-16T02:59:51;231.20;2252.80
57030;DHT22;42920;45.306;20.448;2023-04-16T03:02:17;231.30;2252.80
57030;DHT22;42920;45.306;20.448;2023-04-16T03:04:42;231.30;2252.80
57030;DHT22;42920;45.306;20.448;2023-04-16T03:07:08;231.10;2252.80
57030;DHT22;42920;45.306;20.448;2023-04-16T03:09:34;231.00;2252.80
57030;DHT22;42920;45.306;20.448;2023-04-16T03:12:00;231.00;2252.80
57030;DHT22;42920;45.306;20.448;2023-04-16T03:14:26;231.00;2252.80
57030;DHT22;42920;45.306;20.448;2023-04-16T03:16:52;230.90;2252.80
57030;DHT22;42920;45.306;20.448;2023-04-16T03:19:18;230.80;2252.80
57030;DHT22;42920;45.306;20.448;2023-04-16T03:21:43;230.70;2252.80
57030;DHT22;42920;45.306;20.448;2023-04-16T03:24:09;230.80;2252.80
57030;DHT22;42920;45.306;20.448;2023-04-16T03:26:34;230.90;2252.80
57030;DHT22;42920;45.306;20.448;2023-04-16T03:29:00;230.90;2252.80
57030;DHT22;42920;45.306;20.448;2023-04-16T03:31:26;230.90;2252.80
57030;DHT22;42920;45.306;20.448;2023-04-16T03:33:52;230.80;2252.80
57030;DHT22;42920;45.306;20.448;2023-04-16T03:36:17;230.80;2252.80
57030;DHT22;42920;45.306;20.448;2023-04-16T03:38:43;230.90;2252.80
57030;DHT22;42920;45.306;20.448;2023-04-16T03:41:09;231.20;2252.80
57030;DHT22;42920;45.306;20.448;2023-04-16T03:43:34;231.20;2252.80
57030;DHT22;42920;45.306;20.448;2023-04-16T03:46:00;231.00;2252.80
57030;DHT22;42920;45.306;20.448;2023-04-16T03:48:25;231.00;2252.80
57030;DHT22;42920;45.306;20.448;2023-04-16T03:50:51;231.00;2252.80
57030;DHT22;42920;45.306;20.448;2023-04-16T03:53:16;230.90;2252.80
57030;DHT22;42920;45.306;20.448;2023-04-16T03:55:42;230.90;2252.80
57030;DHT22;42920;45.306;20.448;2023-04-16T03:58:08;231.00;2252.80
57030;DHT22;42920;45.306;20.448;2023-04-16T04:00:33;231.00;2252.80
57030;DHT22;42920;45.306;20.448;2023-04-16T04:02:59;231.20;2252.80
57030;DHT22;42920;45.306;20.448;2023-04-16T04:05:24;231.10;2252.80
57030;DHT22;42920;45.306;20.448;2023-04-16T04:07:51;231.10;2252.80
57030;DHT22;42920;45.306;20.448;2023-04-16T04:10:16;231.00;2252.80
57030;DHT22;42920;45.306;20.448;2023-04-16T04:12:42;231.00;2252.80
57030;DHT22;42920;45.306;20.448;2023-04-16T04:15:08;231.20;2252.80
57030;DHT22;42920;45.306;20.448;2023-04-16T04:17:33;231.30;2252.80
57030;DHT22;42920;45.306;20.448;2023-04-16T04:19:59;231.30;2252.80
57030;DHT22;42920;45.306;20.448;2023-04-16T04:22:24;231.30;2252.80
57030;DHT22;42920;45.306;20.448;2023-04-16T04:24:50;231.30;2252.80
57030;DHT22;42920;45.306;20.448;2023-04-16T04:27:15;231.20;2252.80
57030;DHT22;42920;45.306;20.448;2023-04-16T04:29:41;231.10;2252.80
57030;DHT22;42920;45.306;20.448;2023-04-16T04:32:06;231.20;2252.80
57030;DHT22;42920;45.306;20.448;2023-04-16T04:34:32;231.30;2252.80
57030;DHT22;42920;45.306;20.448;2023-04-16T04:36:58;231.30;2252.80
57030;DHT22;42920;45.306;20.448;2023-04-16T04:39:23;256.20;2252.80
57030;DHT22;42920;45.306;20.448;2023-04-16T04:41:49;256.20;2252.80
57030;DHT22;42920;45.306;20.448;2023-04-16T04:44:14;256.10;2252.80
57030;DHT22;42920;45.306;20.448;2023-04-16T04:46:40;256.20;2252.80
57030;DHT22;42920;45.306;20.448;2023-04-16T04:49:06;256.30;2252.80
57030;DHT22;42920;45.306;20.448;2023-04-16T04:51:32;256.20;2252.80
57030;DHT22;42920;45.306;20.448;2023-04-16T04:53:57;256.30;2252.80
57030;DHT22;42920;45.306;20.448;2023-04-16T04:56:23;256.50;2252.80
57030;DHT22;42920;45.306;20.448;2023-04-16T04:58:49;256.50;2252.80
57030;DHT22;42920;45.306;20.448;2023-04-16T05:01:15;256.60;2252.80
57030;DHT22;42920;45.306;20.448;2023-04-16T05:03:40;256.50;2252.80
57030;DHT22;42920;45.306;20.448;2023-04-16T05:06:06;256.50;2252.80
57030;DHT22;42920;45.306;20.448;2023-04-16T05:08:32;256.50;2252.80
57030;DHT22;42920;45.306;20.448;2023-04-16T05:10:57;256.50;2252.80
57030;DHT22;42920;45.306;20.448;2023-04-16T05:13:23;256.70;2252.80
57030;DHT22;42920;45.306;20.448;2023-04-16T05:15:48;256.70;2252.80
57030;DHT22;42920;45.306;20.448;2023-04-16T05:18:14;256.60;2252.80
57030;DHT22;42920;45.306;20.448;2023-04-16T05:20:40;256.90;2252.80
57030;DHT22;42920;45.306;20.448;2023-04-16T05:23:06;256.90;2252.80
57030;DHT22;42920;45.306;20.448;2023-04-16T05:25:31;281.60;2278.40
57030;DHT22;42920;45.306;20.448;2023-04-16T05:27:57;281.60;2278.40
57030;DHT22;42920;45.306;20.448;2023-04-16T05:30:22;281.60;2278.40
57030;DHT22;42920;45.306;20.448;2023-04-16T05:32:48;281.60;2278.40
57030;DHT22;42920;45.306;20.448;2023-04-16T05:35:13;281.70;2278.40
57030;DHT22;42920;45.306;20.448;2023-04-16T05:37:39;281.80;2278.40
57030;DHT22;42920;45.306;20.448;2023-04-16T05:40:05;281.90;2278.40
57030;DHT22;42920;45.306;20.448;2023-04-16T05:42:31;282.00;2278.40
57030;DHT22;42920;45.306;20.448;2023-04-16T05:44:56;282.00;2278.40
57030;DHT22;42920;45.306;20.448;2023-04-16T05:47:22;282.10;2278.40
57030;DHT22;42920;45.306;20.448;2023-04-16T05:49:48;282.10;2278.40
57030;DHT22;42920;45.306;20.448;2023-04-16T05:52:14;282.20;2278.40
57030;DHT22;42920;45.306;20.448;2023-04-16T05:54:40;282.30;2278.40
57030;DHT22;42920;45.306;20.448;2023-04-16T05:57:05;282.30;2278.40
57030;DHT22;42920;45.306;20.448;2023-04-16T05:59:31;282.40;2278.40
57030;DHT22;42920;45.306;20.448;2023-04-16T06:01:57;282.50;2278.40
57030;DHT22;42920;45.306;20.448;2023-04-16T06:04:22;307.20;2304.00
57030;DHT22;42920;45.306;20.448;2023-04-16T06:06:48;307.30;2304.00
57030;DHT22;42920;45.306;20.448;2023-04-16T06:09:13;307.40;2304.00
57030;DHT22;42920;45.306;20.448;2023-04-16T06:11:39;307.40;2304.00
57030;DHT22;42920;45.306;20.448;2023-04-16T06:14:05;307.40;2304.00
57030;DHT22;42920;45.306;20.448;2023-04-16T06:16:30;307.40;2304.00
57030;DHT22;42920;45.306;20.448;2023-04-16T06:18:56;307.60;2304.00
57030;DHT22;42920;45.306;20.448;2023-04-16T06:21:22;307.60;2304.00
57030;DHT22;42920;45.306;20.448;2023-04-16T06:23:47;307.70;2304.00
57030;DHT22;42920;45.306;20.448;2023-04-16T06:26:13;307.80;2304.00
57030;DHT22;42920;45.306;20.448;2023-04-16T06:28:38;307.90;2304.00
57030;DHT22;42920;45.306;20.448;2023-04-16T06:31:04;307.90;2304.00
57030;DHT22;42920;45.306;20.448;2023-04-16T06:33:30;307.90;2304.00
57030;DHT22;42920;45.306;20.448;2023-04-16T06:35:58;307.90;2304.00
57030;DHT22;42920;45.306;20.448;2023-04-16T06:38:24;308.00;2304.00
57030;DHT22;42920;45.306;20.448;2023-04-16T06:40:49;308.10;2304.00
57030;DHT22;42920;45.306;20.448;2023-04-16T06:43:15;308.10;2304.00
57030;DHT22;42920;45.306;20.448;2023-04-16T06:45:42;332.90;2329.60
57030;DHT22;42920;45.306;20.448;2023-04-16T06:48:07;332.90;2329.60
57030;DHT22;42920;45.306;20.448;2023-04-16T06:50:33;332.90;2329.60
57030;DHT22;42920;45.306;20.448;2023-04-16T06:52:58;333.10;2329.60
57030;DHT22;42920;45.306;20.448;2023-04-16T06:55:24;333.10;2329.60
57030;DHT22;42920;45.306;20.448;2023-04-16T06:57:50;333.20;2329.60
57030;DHT22;42920;45.306;20.448;2023-04-16T07:00:15;333.20;2329.60
57030;DHT22;42920;45.306;20.448;2023-04-16T07:02:41;333.30;2329.60
57030;DHT22;42920;45.306;20.448;2023-04-16T07:05:06;333.40;2329.60
57030;DHT22;42920;45.306;20.448;2023-04-16T07:07:33;333.40;2329.60
57030;DHT22;42920;45.306;20.448;2023-04-16T07:09:58;333.50;2329.60
57030;DHT22;42920;45.306;20.448;2023-04-16T07:12:24;333.60;2329.60
57030;DHT22;42920;45.306;20.448;2023-04-16T07:14:50;333.70;2329.60
57030;DHT22;42920;45.306;20.448;2023-04-16T07:17:15;333.70;2329.60
57030;DHT22;42920;45.306;20.448;2023-04-16T07:19:41;358.40;2329.60
57030;DHT22;42920;45.306;20.448;2023-04-16T07:22:06;358.60;2329.60
57030;DHT22;42920;45.306;20.448;2023-04-16T07:24:32;358.70;2329.60
57030;DHT22;42920;45.306;20.448;2023-04-16T07:26:58;358.80;2329.60
57030;DHT22;42920;45.306;20.448;2023-04-16T07:29:23;358.90;2329.60
57030;DHT22;42920;45.306;20.448;2023-04-16T07:31:49;358.90;2329.60
57030;DHT22;42920;45.306;20.448;2023-04-16T07:34:14;358.90;2329.60
57030;DHT22;42920;45.306;20.448;2023-04-16T07:36:40;359.00;2329.60
57030;DHT22;42920;45.306;20.448;2023-04-16T07:39:06;359.00;2329.60
57030;DHT22;42920;45.306;20.448;2023-04-16T07:41:31;359.10;2329.60
57030;DHT22;42920;45.306;20.448;2023-04-16T07:43:57;359.20;2329.60
57030;DHT22;42920;45.306;20.448;2023-04-16T07:46:22;384.00;2329.60
57030;DHT22;42920;45.306;20.448;2023-04-16T07:48:48;384.10;2329.60
57030;DHT22;42920;45.306;20.448;2023-04-16T07:51:13;384.60;2329.60
57030;DHT22;42920;45.306;20.448;2023-04-16T07:53:39;384.70;2329.60
57030;DHT22;42920;45.306;20.448;2023-04-16T07:56:05;384.70;2329.60
57030;DHT22;42920;45.306;20.448;2023-04-16T07:58:31;384.90;2329.60
57030;DHT22;42920;45.306;20.448;2023-04-16T08:00:57;409.70;2355.20
57030;DHT22;42920;45.306;20.448;2023-04-16T08:03:22;409.80;2355.20
57030;DHT22;42920;45.306;20.448;2023-04-16T08:05:48;410.00;2355.20
57030;DHT22;42920;45.306;20.448;2023-04-16T08:08:13;410.20;2355.20
57030;DHT22;42920;45.306;20.448;2023-04-16T08:10:39;410.30;2355.20
57030;DHT22;42920;45.306;20.448;2023-04-16T08:13:05;410.30;2355.20
57030;DHT22;42920;45.306;20.448;2023-04-16T08:15:31;410.50;2355.20
57030;DHT22;42920;45.306;20.448;2023-04-16T08:17:56;435.30;2355.20
57030;DHT22;42920;45.306;20.448;2023-04-16T08:20:22;435.30;2355.20
57030;DHT22;42920;45.306;20.448;2023-04-16T08:22:47;435.40;2355.20
57030;DHT22;42920;45.306;20.448;2023-04-16T08:25:13;435.40;2355.20
57030;DHT22;42920;45.306;20.448;2023-04-16T08:27:39;435.40;2355.20
57030;DHT22;42920;45.306;20.448;2023-04-16T08:30:06;435.30;2355.20
57030;DHT22;42920;45.306;20.448;2023-04-16T08:32:32;435.30;2355.20
57030;DHT22;42920;45.306;20.448;2023-04-16T08:34:58;435.20;2355.20
57030;DHT22;42920;45.306;20.448;2023-04-16T08:37:24;435.30;2355.20
57030;DHT22;42920;45.306;20.448;2023-04-16T08:39:50;435.40;2355.20
57030;DHT22;42920;45.306;20.448;2023-04-16T08:42:29;435.50;2355.20
57030;DHT22;42920;45.306;20.448;2023-04-16T08:45:01;435.60;2355.20
57030;DHT22;42920;45.306;20.448;2023-04-16T08:47:28;435.70;2355.20
57030;DHT22;42920;45.306;20.448;2023-04-16T08:49:56;435.90;2355.20
57030;DHT22;42920;45.306;20.448;2023-04-16T08:52:23;436.10;2355.20
57030;DHT22;42920;45.306;20.448;2023-04-16T08:54:58;460.80;2380.80
57030;DHT22;42920;45.306;20.448;2023-04-16T08:57:25;460.80;2380.80
57030;DHT22;42920;45.306;20.448;2023-04-16T08:59:53;460.80;2380.80
57030;DHT22;42920;45.306;20.448;2023-04-16T09:02:20;460.90;2380.80
57030;DHT22;42920;45.306;20.448;2023-04-16T09:04:45;461.00;2176.00
57030;DHT22;42920;45.306;20.448;2023-04-16T09:07:12;461.10;2355.20
57030;DHT22;42920;45.306;20.448;2023-04-16T09:09:38;461.40;2176.00
57030;DHT22;42920;45.306;20.448;2023-04-16T09:12:05;461.20;2227.20
57030;DHT22;42920;45.306;20.448;2023-04-16T09:14:31;461.20;2304.00
57030;DHT22;42920;45.306;20.448;2023-04-16T09:16:57;461.10;2304.00
57030;DHT22;42920;45.306;20.448;2023-04-16T09:19:25;461.20;2355.20
57030;DHT22;42920;45.306;20.448;2023-04-16T09:21:51;461.20;2380.80
57030;DHT22;42920;45.306;20.448;2023-04-16T09:24:17;461.20;2380.80
57030;DHT22;42920;45.306;20.448;2023-04-16T09:26:42;461.20;2380.80
57030;DHT22;42920;45.306;20.448;2023-04-16T09:29:08;461.40;2380.80
57030;DHT22;42920;45.306;20.448;2023-04-16T09:31:34;461.60;2380.80
57030;DHT22;42920;45.306;20.448;2023-04-16T09:34:06;461.60;2380.80
57030;DHT22;42920;45.306;20.448;2023-04-16T09:36:32;461.60;2355.20
57030;DHT22;42920;45.306;20.448;2023-04-16T09:38:58;461.50;2380.80
57030;DHT22;42920;45.306;20.448;2023-04-16T09:41:33;461.60;2380.80
57030;DHT22;42920;45.306;20.448;2023-04-16T09:44:03;486.60;2329.60
57030;DHT22;42920;45.306;20.448;2023-04-16T09:46:36;486.80;2124.80
57030;DHT22;42920;45.306;20.448;2023-04-16T09:49:08;487.00;2048.00
57030;DHT22;42920;45.306;20.448;2023-04-16T09:51:39;487.00;1920.00
57030;DHT22;42920;45.306;20.448;2023-04-16T09:54:05;487.20;1920.00
57030;DHT22;42920;45.306;20.448;2023-04-16T09:56:31;487.30;1868.80
57030;DHT22;42920;45.306;20.448;2023-04-16T09:58:58;512.10;1817.60
57030;DHT22;42920;45.306;20.448;2023-04-16T10:01:24;512.00;1843.20
57030;DHT22;42920;45.306;20.448;2023-04-16T10:03:51;487.10;1920.00
57030;DHT22;42920;45.306;20.448;2023-04-16T10:06:18;487.00;2073.60
57030;DHT22;42920;45.306;20.448;2023-04-16T10:08:47;486.90;2227.20
57030;DHT22;42920;45.306;20.448;2023-04-16T10:11:16;486.80;2201.60
57030;DHT22;42920;45.306;20.448;2023-04-16T10:13:42;486.70;2022.40
57030;DHT22;42920;45.306;20.448;2023-04-16T10:16:08;486.70;2073.60
57030;DHT22;42920;45.306;20.448;2023-04-16T10:18:37;486.70;2099.20
57030;DHT22;42920;45.306;20.448;2023-04-16T10:21:03;486.70;2022.40
57030;DHT22;42920;45.306;20.448;2023-04-16T10:23:29;487.20;2124.80
57030;DHT22;42920;45.306;20.448;2023-04-16T10:25:57;512.20;1920.00
57030;DHT22;42920;45.306;20.448;2023-04-16T10:28:23;512.30;1843.20
57030;DHT22;42920;45.306;20.448;2023-04-16T10:30:49;512.00;1971.20
57030;DHT22;42920;45.306;20.448;2023-04-16T10:33:18;487.20;1894.40
57030;DHT22;42920;45.306;20.448;2023-04-16T10:35:44;487.20;1945.60
57030;DHT22;42920;45.306;20.448;2023-04-16T10:38:31;487.10;2022.40
57030;DHT22;42920;45.306;20.448;2023-04-16T10:40:57;487.10;2048.00
57030;DHT22;42920;45.306;20.448;2023-04-16T10:43:22;487.10;1920.00
57030;DHT22;42920;45.306;20.448;2023-04-16T10:45:49;487.10;1817.60
57030;DHT22;42920;45.306;20.448;2023-04-16T10:48:17;487.10;1817.60
57030;DHT22;42920;45.306;20.448;2023-04-16T10:50:42;487.10;1715.20
57030;DHT22;42920;45.306;20.448;2023-04-16T10:53:18;487.00;1689.60
57030;DHT22;42920;45.306;20.448;2023-04-16T10:58:29;487.00;1792.00
57030;DHT22;42920;45.306;20.448;2023-04-16T11:00:56;487.00;1817.60
57030;DHT22;42920;45.306;20.448;2023-04-16T11:03:23;512.40;1715.20
57030;DHT22;42920;45.306;20.448;2023-04-16T11:05:48;512.50;1612.80
57030;DHT22;42920;45.306;20.448;2023-04-16T11:08:14;512.30;1587.20
57030;DHT22;42920;45.306;20.448;2023-04-16T11:10:43;512.40;1561.60
57030;DHT22;42920;45.306;20.448;2023-04-16T11:13:09;512.60;1612.80
57030;DHT22;42920;45.306;20.448;2023-04-16T11:15:37;537.60;1561.60
57030;DHT22;42920;45.306;20.448;2023-04-16T11:18:02;537.70;1561.60
57030;DHT22;42920;45.306;20.448;2023-04-16T11:20:28;538.10;1612.80
57030;DHT22;42920;45.306;20.448;2023-04-16T11:22:54;538.30;1561.60
57030;DHT22;42920;45.306;20.448;2023-04-16T11:25:20;563.40;1587.20
57030;DHT22;42920;45.306;20.448;2023-04-16T11:27:47;538.20;1536.00
57030;DHT22;42920;45.306;20.448;2023-04-16T11:30:12;563.40;1689.60
57030;DHT22;42920;45.306;20.448;2023-04-16T11:32:38;563.20;1664.00
57030;DHT22;42920;45.306;20.448;2023-04-16T11:35:11;538.50;1612.80
57030;DHT22;42920;45.306;20.448;2023-04-16T11:37:37;563.20;1612.80
57030;DHT22;42920;45.306;20.448;2023-04-16T11:40:04;563.20;1612.80
57030;DHT22;42920;45.306;20.448;2023-04-16T11:42:31;563.40;1612.80
57030;DHT22;42920;45.306;20.448;2023-04-16T11:44:57;563.20;1587.20
57030;DHT22;42920;45.306;20.448;2023-04-16T11:47:25;563.20;1612.80
57030;DHT22;42920;45.306;20.448;2023-04-16T11:49:51;563.50;1612.80
57030;DHT22;42920;45.306;20.448;2023-04-16T11:52:32;563.50;1561.60
57030;DHT22;42920;45.306;20.448;2023-04-16T11:54:58;563.40;1587.20
57030;DHT22;42920;45.306;20.448;2023-04-16T11:59:49;538.50;1664.00
57030;DHT22;42920;45.306;20.448;2023-04-16T12:02:15;563.50;1664.00
57030;DHT22;42920;45.306;20.448;2023-04-16T12:04:41;563.60;1612.80
57030;DHT22;42920;45.306;20.448;2023-04-16T12:07:11;563.70;1612.80
57030;DHT22;42920;45.306;20.448;2023-04-16T12:09:37;563.60;1638.40
57030;DHT22;42920;45.306;20.448;2023-04-16T12:12:03;563.90;1612.80
57030;DHT22;42920;45.306;20.448;2023-04-16T12:14:29;564.10;1638.40
57030;DHT22;42920;45.306;20.448;2023-04-16T12:16:55;564.10;1587.20
57030;DHT22;42920;45.306;20.448;2023-04-16T12:19:21;564.10;1587.20
57030;DHT22;42920;45.306;20.448;2023-04-16T12:21:47;588.90;1664.00
57030;DHT22;42920;45.306;20.448;2023-04-16T12:24:14;564.10;1638.40
57030;DHT22;42920;45.306;20.448;2023-04-16T12:31:41;588.80;1612.80
57030;DHT22;42920;45.306;20.448;2023-04-16T12:34:07;564.10;1612.80
57030;DHT22;42920;45.306;20.448;2023-04-16T12:36:34;588.90;1587.20
57030;DHT22;42920;45.306;20.448;2023-04-16T12:39:00;588.80;1561.60
57030;DHT22;42920;45.306;20.448;2023-04-16T12:41:25;589.00;1612.80
57030;DHT22;42920;45.306;20.448;2023-04-16T12:43:51;588.90;1587.20
57030;DHT22;42920;45.306;20.448;2023-04-16T12:46:17;564.10;1561.60
57030;DHT22;42920;45.306;20.448;2023-04-16T12:48:42;564.10;1587.20
57030;DHT22;42920;45.306;20.448;2023-04-16T12:51:08;564.00;1612.80
57030;DHT22;42920;45.306;20.448;2023-04-16T12:53:33;564.10;1561.60
57030;DHT22;42920;45.306;20.448;2023-04-16T12:55:59;564.10;1510.40
57030;DHT22;42920;45.306;20.448;2023-04-16T12:58:25;563.90;1536.00
57030;DHT22;42920;45.306;20.448;2023-04-16T13:00:50;563.80;1561.60
57030;DHT22;42920;45.306;20.448;2023-04-16T13:03:16;563.80;1484.80
57030;DHT22;42920;45.306;20.448;2023-04-16T13:05:41;564.10;1510.40
57030;DHT22;42920;45.306;20.448;2023-04-16T13:08:07;564.10;1484.80
57030;DHT22;42920;45.306;20.448;2023-04-16T13:10:33;564.10;1536.00
57030;DHT22;42920;45.306;20.448;2023-04-16T13:12:59;564.10;1561.60
57030;DHT22;42920;45.306;20.448;2023-04-16T13:15:24;564.00;1536.00
57030;DHT22;42920;45.306;20.448;2023-04-16T13:17:50;564.10;1510.40
57030;DHT22;42920;45.306;20.448;2023-04-16T13:20:16;564.10;1433.60
57030;DHT22;42920;45.306;20.448;2023-04-16T13:22:41;564.00;1408.00
57030;DHT22;42920;45.306;20.448;2023-04-16T13:25:07;563.80;1459.20
57030;DHT22;42920;45.306;20.448;2023-04-16T13:27:33;564.00;1484.80
57030;DHT22;42920;45.306;20.448;2023-04-16T13:29:58;563.90;1459.20
57030;DHT22;42920;45.306;20.448;2023-04-16T13:32:24;563.90;1510.40
57030;DHT22;42920;45.306;20.448;2023-04-16T13:34:49;563.90;1536.00
57030;DHT22;42920;45.306;20.448;2023-04-16T13:37:15;563.80;1536.00
57030;DHT22;42920;45.306;20.448;2023-04-16T13:39:41;563.60;1561.60
57030;DHT22;42920;45.306;20.448;2023-04-16T13:42:06;563.60;1561.60
57030;DHT22;42920;45.306;20.448;2023-04-16T13:44:32;563.60;1561.60
57030;DHT22;42920;45.306;20.448;2023-04-16T13:46:58;563.50;1587.20
57030;DHT22;42920;45.306;20.448;2023-04-16T13:49:23;563.50;1612.80
57030;DHT22;42920;45.306;20.448;2023-04-16T13:51:49;563.50;1638.40
57030;DHT22;42920;45.306;20.448;2023-04-16T13:54:14;563.40;1638.40
57030;DHT22;42920;45.306;20.448;2023-04-16T13:56:40;563.50;1664.00
57030;DHT22;42920;45.306;20.448;2023-04-16T13:59:05;563.60;1689.60
57030;DHT22;42920;45.306;20.448;2023-04-16T14:01:31;563.60;1664.00
57030;DHT22;42920;45.306;20.448;2023-04-16T14:03:57;563.50;1689.60
57030;DHT22;42920;45.306;20.448;2023-04-16T14:06:24;563.40;1689.60
57030;DHT22;42920;45.306;20.448;2023-04-16T14:08:50;563.30;1715.20
57030;DHT22;42920;45.306;20.448;2023-04-16T14:11:15;563.30;1740.80
57030;DHT22;42920;45.306;20.448;2023-04-16T14:13:41;563.40;1792.00
57030;DHT22;42920;45.306;20.448;2023-04-16T14:16:06;563.30;1766.40
57030;DHT22;42920;45.306;20.448;2023-04-16T14:18:32;563.20;1740.80
57030;DHT22;42920;45.306;20.448;2023-04-16T14:20:58;563.20;1766.40
57030;DHT22;42920;45.306;20.448;2023-04-16T14:23:26;563.20;1740.80
57030;DHT22;42920;45.306;20.448;2023-04-16T14:25:51;538.10;1740.80
57030;DHT22;42920;45.306;20.448;2023-04-16T14:28:18;537.70;1766.40
57030;DHT22;42920;45.306;20.448;2023-04-16T14:30:43;537.80;1843.20
57030;DHT22;42920;45.306;20.448;2023-04-16T14:33:09;537.80;1792.00
57030;DHT22;42920;45.306;20.448;2023-04-16T14:35:34;512.90;1792.00
57030;DHT22;42920;45.306;20.448;2023-04-16T14:38:00;512.80;1843.20
57030;DHT22;42920;45.306;20.448;2023-04-16T14:40:26;512.70;1766.40